Time;durP1;ratioP1;P1;durP2;ratioP2;P2;SDS_P1;SDS_P2;PMS_P1;PMS_P2;Temp;Humidity;BMP_temperature;BMP_pressure;BME280_temperature;BME280_humidity;BME280_pressure;Samples;Min_cycle;Max_cycle;Signal;HPM_P1;HPM_P2
2021/04/05 00:00:01;;;;;;;;;;;11.80;54.30;;;;;;2090084;28;689;-52
2021/04/05 00:01:20;;;;;;;;;;;11.80;54.40;;;;;;2078298;28;1295;-51
2021/04/05 00:02:40;;;;;;;;;;;11.80;54.80;;;;;;2078561;28;701;-52
2021/04/05 00:03:59;;;;;;;;;;;11.80;54.80;;;;;;2078351;28;618;-52
2021/04/05 00:05:19;;;;;;;;;;;11.80;54.30;;;;;;2092431;28;1947;-51
2021/04/05 00:06:39;;;;;;;;;;;11.80;54.30;;;;;;2079270;28;1906;-51
2021/04/05 00:07:58;;;;;;;;;;;11.80;54.40;;;;;;2091652;28;932;-52
2021/04/05 00:09:17;;;;;;;;;;;11.80;54.30;;;;;;2084301;28;1132;-51
2021/04/05 00:10:47;;;;;;;;;;;11.80;54.30;;;;;;2086718;28;770;-49
2021/04/05 00:12:07;;;;;;;;;;;11.80;54.30;;;;;;2087433;28;820;-51
2021/04/05 00:13:27;;;;;;;;;;;11.80;54.30;;;;;;2095431;28;704;-52
2021/04/05 00:14:47;;;;;;;;;;;11.80;54.30;;;;;;2080960;28;1630;-51
2021/04/05 00:16:06;;;;;;;;;;;11.80;54.40;;;;;;2091747;28;1900;-49
2021/04/05 00:17:25;;;;;;;;;;;11.80;54.40;;;;;;2098646;28;1362;-50
2021/04/05 00:18:44;;;;;;;;;;;11.80;54.40;;;;;;2098833;28;665;-50
2021/04/05 00:20:07;;;;;;;;;;;11.70;54.30;;;;;;2089693;28;720;-50
2021/04/05 00:21:28;;;;;;;;;;;11.70;54.30;;;;;;2078198;28;599;-49
2021/04/05 00:22:47;;;;;;;;;;;11.70;54.30;;;;;;2091965;28;690;-50
2021/04/05 00:24:06;;;;;;;;;;;11.70;54.20;;;;;;2081555;28;750;-50
2021/04/05 00:25:26;;;;;;;;;;;11.70;54.30;;;;;;2077708;28;1250;-51
2021/04/05 00:26:45;;;;;;;;;;;11.70;54.30;;;;;;2081172;28;1910;-50
2021/04/05 00:28:04;;;;;;;;;;;11.70;54.30;;;;;;2078271;28;744;-50
2021/04/05 00:29:24;;;;;;;;;;;11.70;54.30;;;;;;2084619;28;1290;-50
2021/04/05 00:30:43;;;;;;;;;;;11.70;54.30;;;;;;2094988;28;722;-50
2021/04/05 00:32:02;;;;;;;;;;;11.70;54.30;;;;;;2098088;28;638;-49
2021/04/05 00:33:21;;;;;;;;;;;11.70;54.30;;;;;;2081598;28;665;-51
2021/04/05 00:34:40;;;;;;;;;;;11.70;54.30;;;;;;2088462;28;1650;-53
2021/04/05 00:35:59;;;;;;;;;;;11.70;54.80;;;;;;2081472;28;605;-50
2021/04/05 00:37:18;;;;;;;;;;;11.70;54.80;;;;;;2089354;28;1449;-51
2021/04/05 00:38:38;;;;;;;;;;;11.70;54.40;;;;;;2083628;28;1075;-51
2021/04/05 00:39:57;;;;;;;;;;;11.70;54.40;;;;;;2070108;28;621;-52
2021/04/05 00:41:16;;;;;;;;;;;11.70;54.40;;;;;;2075577;28;1941;-52
2021/04/05 00:42:36;;;;;;;;;;;11.70;54.40;;;;;;2086564;28;693;-51
2021/04/05 00:43:56;;;;;;;;;;;11.70;54.40;;;;;;2078913;28;1473;-50
2021/04/05 00:45:15;;;;;;;;;;;11.70;54.40;;;;;;2084594;28;1478;-52
2021/04/05 00:46:35;;;;;;;;;;;11.70;54.40;;;;;;2088086;28;1910;-50
2021/04/05 00:47:54;;;;;;;;;;;11.70;54.40;;;;;;2090279;28;703;-50
2021/04/05 00:49:13;;;;;;;;;;;11.70;54.40;;;;;;2086783;28;792;-50
2021/04/05 00:50:32;;;;;;;;;;;11.70;54.40;;;;;;2072969;28;520;-50
2021/04/05 00:51:51;;;;;;;;;;;11.70;54.40;;;;;;2082868;28;693;-50
2021/04/05 00:53:11;;;;;;;;;;;11.70;54.90;;;;;;2090196;28;697;-53
2021/04/05 00:54:30;;;;;;;;;;;11.70;54.90;;;;;;2082715;28;1937;-51
2021/04/05 00:55:49;;;;;;;;;;;11.70;54.40;;;;;;2078011;28;780;-52
2021/04/05 00:57:09;;;;;;;;;;;11.70;54.40;;;;;;2078257;28;1372;-52
2021/04/05 00:58:28;;;;;;;;;;;11.60;54.30;;;;;;2078119;28;614;-52
2021/04/05 00:59:47;;;;;;;;;;;11.70;54.40;;;;;;2086592;28;709;-52
2021/04/05 01:01:07;;;;;;;;;;;11.60;54.30;;;;;;2090032;28;776;-52
2021/04/05 01:02:27;;;;;;;;;;;11.70;54.40;;;;;;2090303;28;1630;-53
2021/04/05 01:03:46;;;;;;;;;;;11.60;54.30;;;;;;2081272;28;756;-51
2021/04/05 01:05:06;;;;;;;;;;;11.60;54.30;;;;;;2070138;28;692;-52
2021/04/05 01:06:26;;;;;;;;;;;11.60;54.40;;;;;;2070183;28;1010;-52
2021/04/05 01:07:45;;;;;;;;;;;11.60;54.90;;;;;;2079896;28;716;-50
2021/04/05 01:09:05;;;;;;;;;;;11.60;54.80;;;;;;2099062;28;943;-51
2021/04/05 01:10:24;;;;;;;;;;;11.60;54.30;;;;;;2091925;28;802;-52
2021/04/05 01:11:43;;;;;;;;;;;11.60;54.40;;;;;;2082232;28;769;-52
2021/04/05 01:13:03;;;;;;;;;;;11.60;54.40;;;;;;2088210;28;722;-51
2021/04/05 01:14:22;;;;;;;;;;;11.60;54.40;;;;;;2092888;28;1875;-52
2021/04/05 01:15:42;;;;;;;;;;;11.60;54.40;;;;;;2085382;28;973;-51
2021/04/05 01:17:01;;;;;;;;;;;11.60;54.40;;;;;;2088157;28;1455;-52
2021/04/05 01:18:20;;;;;;;;;;;11.60;54.40;;;;;;2082923;28;783;-50
2021/04/05 01:19:39;;;;;;;;;;;11.60;54.40;;;;;;2088947;28;1680;-52
2021/04/05 01:20:59;;;;;;;;;;;11.60;54.40;;;;;;2096323;28;774;-52
2021/04/05 01:22:18;;;;;;;;;;;11.60;54.40;;;;;;2082313;28;726;-51
2021/04/05 01:23:37;;;;;;;;;;;11.60;55.00;;;;;;2093052;28;724;-49
2021/04/05 01:24:56;;;;;;;;;;;11.60;54.40;;;;;;2099716;28;917;-50
2021/04/05 01:26:16;;;;;;;;;;;11.60;55.00;;;;;;2099986;28;717;-51
2021/04/05 01:27:35;;;;;;;;;;;11.60;54.40;;;;;;2091080;28;1362;-50
2021/04/05 01:28:54;;;;;;;;;;;11.60;54.40;;;;;;2090780;28;1653;-50
2021/04/05 01:30:33;;;;;;;;;;;11.60;54.40;;;;;;2074593;28;734;-49
2021/04/05 01:31:52;;;;;;;;;;;11.60;54.40;;;;;;2093999;28;1518;-50
2021/04/05 01:33:12;;;;;;;;;;;11.60;54.40;;;;;;2091003;28;792;-49
2021/04/05 01:34:31;;;;;;;;;;;11.60;54.40;;;;;;2096418;28;678;-49
2021/04/05 01:35:50;;;;;;;;;;;11.60;54.40;;;;;;2100013;28;609;-51
2021/04/05 01:37:09;;;;;;;;;;;11.60;54.40;;;;;;2090506;28;1320;-49
2021/04/05 01:38:37;;;;;;;;;;;11.60;54.40;;;;;;2086684;28;1113;-51
2021/04/05 01:39:56;;;;;;;;;;;11.60;54.90;;;;;;2089797;28;1374;-52
2021/04/05 01:41:16;;;;;;;;;;;11.60;54.40;;;;;;2091463;28;707;-51
2021/04/05 01:42:36;;;;;;;;;;;11.60;54.40;;;;;;2091625;28;629;-50
2021/04/05 01:43:55;;;;;;;;;;;11.60;54.40;;;;;;2095012;28;1639;-50
2021/04/05 01:45:17;;;;;;;;;;;11.60;54.40;;;;;;2082755;28;706;-51
2021/04/05 01:46:36;;;;;;;;;;;11.60;54.90;;;;;;2068904;28;1947;-51
2021/04/05 01:47:55;;;;;;;;;;;11.60;54.40;;;;;;2066287;28;1051;-52
2021/04/05 01:49:15;;;;;;;;;;;11.60;54.40;;;;;;2085757;28;1924;-52
2021/04/05 01:50:34;;;;;;;;;;;11.60;54.40;;;;;;2090971;28;702;-51
2021/04/05 01:51:53;;;;;;;;;;;11.60;54.40;;;;;;2087010;28;697;-52
2021/04/05 01:53:16;;;;;;;;;;;11.50;54.40;;;;;;2096463;28;716;-52
2021/04/05 01:54:35;;;;;;;;;;;11.50;54.40;;;;;;2099780;28;625;-52
2021/04/05 01:55:58;;;;;;;;;;;11.60;54.50;;;;;;2095357;28;1137;-52
2021/04/05 01:57:17;;;;;;;;;;;11.60;55.00;;;;;;2090848;28;1404;-52
2021/04/05 01:58:37;;;;;;;;;;;11.60;54.50;;;;;;2082693;28;1243;-50
2021/04/05 01:59:56;;;;;;;;;;;11.50;54.40;;;;;;2076052;28;1304;-50
2021/04/05 02:01:16;;;;;;;;;;;11.50;54.40;;;;;;2079468;28;1336;-50
2021/04/05 02:02:36;;;;;;;;;;;11.50;54.40;;;;;;2084453;28;1285;-50
2021/04/05 02:03:55;;;;;;;;;;;11.50;54.40;;;;;;2086501;28;1258;-50
2021/04/05 02:05:18;;;;;;;;;;;11.50;54.40;;;;;;2073699;28;1403;-51
2021/04/05 02:06:37;;;;;;;;;;;11.50;55.00;;;;;;2078520;28;1973;-50
2021/04/05 02:07:56;;;;;;;;;;;11.50;54.40;;;;;;2085816;28;1101;-49
2021/04/05 02:09:16;;;;;;;;;;;11.50;54.40;;;;;;2093150;28;1632;-52
2021/04/05 02:10:35;;;;;;;;;;;11.50;54.40;;;;;;2075291;28;1390;-50
2021/04/05 02:11:54;;;;;;;;;;;11.50;54.40;;;;;;2075184;28;1265;-50
2021/04/05 02:13:14;;;;;;;;;;;11.50;54.40;;;;;;2069341;28;1236;-50
2021/04/05 02:14:33;;;;;;;;;;;11.50;54.40;;;;;;2081575;28;1063;-50
2021/04/05 02:15:52;;;;;;;;;;;11.50;54.40;;;;;;2081993;28;1172;-50
2021/04/05 02:17:11;;;;;;;;;;;11.50;54.40;;;;;;2076458;28;1470;-49
2021/04/05 02:18:30;;;;;;;;;;;11.50;54.40;;;;;;2087395;28;1304;-50
2021/04/05 02:19:50;;;;;;;;;;;11.50;54.40;;;;;;2085984;28;2090;-50
2021/04/05 02:21:12;;;;;;;;;;;11.50;54.40;;;;;;2088478;28;1385;-51
2021/04/05 02:22:32;;;;;;;;;;;11.50;55.00;;;;;;2078773;28;1131;-50
2021/04/05 02:23:51;;;;;;;;;;;11.50;54.40;;;;;;2075224;28;1194;-50
2021/04/05 02:25:12;;;;;;;;;;;11.50;54.40;;;;;;2075749;28;1303;-49
2021/04/05 02:26:31;;;;;;;;;;;11.50;54.50;;;;;;2088628;28;1902;-49
2021/04/05 02:27:51;;;;;;;;;;;11.50;54.40;;;;;;2079809;28;1094;-51
2021/04/05 02:29:11;;;;;;;;;;;11.50;54.40;;;;;;2087498;28;1132;-51
2021/04/05 02:30:30;;;;;;;;;;;11.50;54.50;;;;;;2094248;28;1274;-51
2021/04/05 02:31:50;;;;;;;;;;;11.50;54.50;;;;;;2090861;28;1225;-51
2021/04/05 02:33:09;;;;;;;;;;;11.50;54.50;;;;;;2080978;28;1427;-48
2021/04/05 02:34:28;;;;;;;;;;;11.50;54.50;;;;;;2070027;28;1202;-51
2021/04/05 02:35:47;;;;;;;;;;;11.50;55.00;;;;;;2065086;28;1130;-51
2021/04/05 02:37:07;;;;;;;;;;;11.50;54.50;;;;;;2081449;28;1417;-52
2021/04/05 02:38:26;;;;;;;;;;;11.50;54.50;;;;;;2082053;28;1354;-51
2021/04/05 02:39:45;;;;;;;;;;;11.50;54.50;;;;;;2075376;28;1138;-49
2021/04/05 02:41:04;;;;;;;;;;;11.50;54.50;;;;;;2082507;28;1270;-50
2021/04/05 02:42:24;;;;;;;;;;;11.40;54.40;;;;;;2078503;28;1131;-50
2021/04/05 02:43:43;;;;;;;;;;;11.50;54.50;;;;;;2074055;28;1046;-50
2021/04/05 02:45:03;;;;;;;;;;;11.50;54.50;;;;;;2084518;28;1257;-51
2021/04/05 02:46:23;;;;;;;;;;;11.50;54.50;;;;;;2087656;28;1373;-48
2021/04/05 02:47:42;;;;;;;;;;;11.50;54.50;;;;;;2089320;28;1358;-50
2021/04/05 02:49:03;;;;;;;;;;;11.40;54.40;;;;;;2090413;28;1282;-49
2021/04/05 02:50:30;;;;;;;;;;;11.40;54.40;;;;;;2084302;28;1376;-52
2021/04/05 02:51:50;;;;;;;;;;;11.40;54.40;;;;;;2078596;28;1390;-52
2021/04/05 02:53:09;;;;;;;;;;;11.40;54.40;;;;;;2087164;28;1426;-49
2021/04/05 02:54:28;;;;;;;;;;;11.40;54.40;;;;;;2081938;28;1177;-50
2021/04/05 02:55:47;;;;;;;;;;;11.40;54.40;;;;;;2079149;28;1198;-50
2021/04/05 02:57:06;;;;;;;;;;;11.40;54.50;;;;;;2073536;28;1468;-48
2021/04/05 02:58:25;;;;;;;;;;;11.40;54.50;;;;;;2075125;28;1327;-49
2021/04/05 02:59:44;;;;;;;;;;;11.40;55.00;;;;;;2087553;28;1521;-49
2021/04/05 03:01:04;;;;;;;;;;;11.40;54.50;;;;;;2072996;28;1177;-50
2021/04/05 03:02:23;;;;;;;;;;;11.40;54.40;;;;;;2082735;28;1127;-50
2021/04/05 03:03:43;;;;;;;;;;;11.40;54.40;;;;;;2084591;28;1636;-49
2021/04/05 03:05:03;;;;;;;;;;;11.40;54.40;;;;;;2086083;28;1219;-49
2021/04/05 03:06:22;;;;;;;;;;;11.40;54.40;;;;;;2089604;28;1300;-52
2021/04/05 03:07:41;;;;;;;;;;;11.40;54.50;;;;;;2080756;28;1435;-49
2021/04/05 03:09:04;;;;;;;;;;;11.40;54.50;;;;;;2077905;28;1243;-51
2021/04/05 03:10:25;;;;;;;;;;;11.40;54.50;;;;;;2069813;28;1605;-48
2021/04/05 03:11:44;;;;;;;;;;;11.40;55.00;;;;;;2071697;28;1152;-49
2021/04/05 03:13:03;;;;;;;;;;;11.40;54.50;;;;;;2079637;28;1057;-50
2021/04/05 03:14:23;;;;;;;;;;;11.40;54.60;;;;;;2077411;28;1021;-51
2021/04/05 03:15:42;;;;;;;;;;;11.40;54.50;;;;;;2077640;28;1068;-51
2021/04/05 03:17:02;;;;;;;;;;;11.40;54.50;;;;;;2080914;28;1536;-50
2021/04/05 03:18:21;;;;;;;;;;;11.40;54.50;;;;;;2076465;28;1305;-50
2021/04/05 03:19:40;;;;;;;;;;;11.40;54.50;;;;;;2070608;28;1424;-51
2021/04/05 03:21:01;;;;;;;;;;;11.40;54.50;;;;;;2082753;28;1185;-52
2021/04/05 03:22:20;;;;;;;;;;;11.40;54.50;;;;;;2081537;28;1168;-50
2021/04/05 03:23:40;;;;;;;;;;;11.40;54.50;;;;;;2086110;28;1077;-52
2021/04/05 03:24:59;;;;;;;;;;;11.40;55.00;;;;;;2089578;28;1116;-51
2021/04/05 03:26:18;;;;;;;;;;;11.40;55.00;;;;;;2087778;28;1384;-51
2021/04/05 03:27:37;;;;;;;;;;;11.40;54.50;;;;;;2079230;28;1400;-51
2021/04/05 03:28:56;;;;;;;;;;;11.40;54.50;;;;;;2082200;28;1334;-51
2021/04/05 03:30:18;;;;;;;;;;;11.40;54.50;;;;;;2090234;28;1483;-51
2021/04/05 03:31:38;;;;;;;;;;;11.40;54.60;;;;;;2063395;28;1243;-52
2021/04/05 03:33:20;;;;;;;;;;;11.40;54.50;;;;;;2080895;28;1316;-52
2021/04/05 03:34:39;;;;;;;;;;;11.40;54.60;;;;;;2085120;28;1684;-51
2021/04/05 03:35:59;;;;;;;;;;;11.40;54.60;;;;;;2076164;28;1267;-50
2021/04/05 03:37:19;;;;;;;;;;;11.30;54.50;;;;;;2075996;28;1392;-51
2021/04/05 03:38:38;;;;;;;;;;;11.30;54.50;;;;;;2087329;28;1225;-51
2021/04/05 03:39:57;;;;;;;;;;;11.40;54.60;;;;;;2085027;28;1629;-51
2021/04/05 03:41:37;;;;;;;;;;;11.30;54.50;;;;;;2077622;28;1174;-51
2021/04/05 03:43:03;;;;;;;;;;;11.30;54.60;;;;;;2080627;28;1037;-51
2021/04/05 03:44:36;;;;;;;;;;;11.30;55.00;;;;;;2079791;28;1327;-51
2021/04/05 03:45:56;;;;;;;;;;;11.30;54.50;;;;;;2079197;28;1389;-51
2021/04/05 03:47:30;;;;;;;;;;;11.30;54.50;;;;;;2081690;28;1978;-51
2021/04/05 03:48:58;;;;;;;;;;;11.30;54.50;;;;;;2090288;28;1253;-50
2021/04/05 03:50:21;;;;;;;;;;;11.30;54.50;;;;;;2081277;28;1406;-51
2021/04/05 03:51:43;;;;;;;;;;;11.30;54.50;;;;;;2077935;28;1143;-50
2021/04/05 03:53:02;;;;;;;;;;;11.30;54.50;;;;;;2077925;28;1445;-50
2021/04/05 03:54:21;;;;;;;;;;;11.30;54.50;;;;;;2088727;28;1500;-49
2021/04/05 03:55:41;;;;;;;;;;;11.30;54.50;;;;;;2079305;28;947;-50
2021/04/05 03:57:00;;;;;;;;;;;11.30;54.50;;;;;;2077880;28;1526;-51
2021/04/05 03:58:19;;;;;;;;;;;11.30;54.50;;;;;;2073736;28;1184;-51
2021/04/05 03:59:40;;;;;;;;;;;11.30;54.50;;;;;;2078656;28;1156;-50
2021/04/05 04:01:01;;;;;;;;;;;11.30;55.10;;;;;;2085353;28;1779;-49
2021/04/05 04:02:23;;;;;;;;;;;11.30;54.50;;;;;;2081248;28;1527;-50
2021/04/05 04:03:52;;;;;;;;;;;11.30;54.50;;;;;;2085322;28;1219;-50
2021/04/05 04:05:19;;;;;;;;;;;11.30;54.60;;;;;;2084593;28;1264;-50
2021/04/05 04:06:44;;;;;;;;;;;11.30;54.60;;;;;;2082178;28;1964;-51
2021/04/05 04:09:23;;;;;;;;;;;11.30;54.50;;;;;;2079815;28;1421;-50
2021/04/05 04:10:45;;;;;;;;;;;11.30;54.50;;;;;;2080337;28;1725;-51
2021/04/05 04:12:09;;;;;;;;;;;11.30;54.60;;;;;;2081247;28;1329;-52
2021/04/05 04:13:29;;;;;;;;;;;11.30;54.60;;;;;;2073409;28;1667;-51
2021/04/05 04:14:48;;;;;;;;;;;11.30;54.50;;;;;;2076250;28;1088;-53
2021/04/05 04:16:08;;;;;;;;;;;11.30;54.60;;;;;;2078633;28;1271;-52
2021/04/05 04:17:27;;;;;;;;;;;11.30;54.60;;;;;;2078218;28;1584;-52
2021/04/05 04:18:47;;;;;;;;;;;11.30;54.60;;;;;;2086286;28;1226;-52
2021/04/05 04:20:10;;;;;;;;;;;11.30;54.60;;;;;;2078445;28;1638;-55
2021/04/05 04:21:29;;;;;;;;;;;11.30;54.60;;;;;;2081504;28;1473;-56
2021/04/05 04:22:48;;;;;;;;;;;11.30;55.20;;;;;;2087328;28;1403;-55
2021/04/05 04:24:08;;;;;;;;;;;11.30;55.10;;;;;;2090498;28;1159;-56
2021/04/05 04:25:27;;;;;;;;;;;11.40;54.70;;;;;;2082348;28;1235;-53
2021/04/05 04:26:46;;;;;;;;;;;11.40;54.90;;;;;;2087188;28;1969;-52
2021/04/05 04:28:05;;;;;;;;;;;11.40;54.80;;;;;;2080495;28;1268;-51
2021/04/05 04:29:25;;;;;;;;;;;11.40;54.70;;;;;;2082923;28;1289;-53
2021/04/05 04:30:44;;;;;;;;;;;11.40;54.80;;;;;;2091458;28;1591;-51
2021/04/05 04:32:03;;;;;;;;;;;11.40;55.00;;;;;;2080180;28;1561;-52
2021/04/05 04:33:25;;;;;;;;;;;11.30;55.00;;;;;;2085594;28;1184;-51
2021/04/05 04:34:44;;;;;;;;;;;11.30;55.10;;;;;;2074643;28;1145;-53
2021/04/05 04:36:03;;;;;;;;;;;11.30;55.10;;;;;;2076467;28;1285;-52
2021/04/05 04:37:22;;;;;;;;;;;11.30;55.60;;;;;;2074315;28;1417;-53
2021/04/05 04:38:41;;;;;;;;;;;11.30;55.60;;;;;;2073285;28;1094;-52
2021/04/05 04:40:00;;;;;;;;;;;11.30;55.10;;;;;;2080719;28;1394;-52
2021/04/05 04:41:23;;;;;;;;;;;11.30;55.20;;;;;;2084768;28;939;-51
2021/04/05 04:42:42;;;;;;;;;;;11.30;55.20;;;;;;2082979;28;1229;-49
2021/04/05 04:44:03;;;;;;;;;;;11.30;55.20;;;;;;2085793;28;1326;-50
2021/04/05 04:45:23;;;;;;;;;;;11.30;55.20;;;;;;2079222;28;1081;-49
2021/04/05 04:46:42;;;;;;;;;;;11.30;55.20;;;;;;2086332;28;1898;-50
2021/04/05 04:48:02;;;;;;;;;;;11.30;55.20;;;;;;2072588;28;1319;-51
2021/04/05 04:49:21;;;;;;;;;;;11.30;55.20;;;;;;2082773;28;1547;-49
2021/04/05 04:50:40;;;;;;;;;;;11.30;55.80;;;;;;2079734;28;1292;-52
2021/04/05 04:51:59;;;;;;;;;;;11.30;55.20;;;;;;2076868;28;1235;-52
2021/04/05 04:53:19;;;;;;;;;;;11.30;55.20;;;;;;2080150;28;1226;-52
2021/04/05 04:54:38;;;;;;;;;;;11.30;55.20;;;;;;2084837;28;1104;-53
2021/04/05 04:55:57;;;;;;;;;;;11.30;55.20;;;;;;2090260;28;1339;-52
2021/04/05 04:57:17;;;;;;;;;;;11.30;55.20;;;;;;2080559;28;1473;-52
2021/04/05 04:58:36;;;;;;;;;;;11.30;55.20;;;;;;2086123;28;1101;-53
2021/04/05 04:59:56;;;;;;;;;;;11.30;55.20;;;;;;2089519;28;1163;-52
2021/04/05 05:01:16;;;;;;;;;;;11.40;55.20;;;;;;2079985;28;1158;-52
2021/04/05 05:02:35;;;;;;;;;;;11.40;55.10;;;;;;2085273;28;1594;-53
2021/04/05 05:03:56;;;;;;;;;;;11.50;55.00;;;;;;2080655;28;1140;-52
2021/04/05 05:05:15;;;;;;;;;;;11.50;54.90;;;;;;2071658;28;1125;-52
2021/04/05 05:06:34;;;;;;;;;;;11.60;55.30;;;;;;2077168;28;1010;-56
2021/04/05 05:07:53;;;;;;;;;;;11.60;54.60;;;;;;2082601;28;1719;-51
2021/04/05 05:09:13;;;;;;;;;;;11.70;54.40;;;;;;2070149;28;927;-55
2021/04/05 05:10:32;;;;;;;;;;;11.80;54.40;;;;;;2083753;28;1023;-52
2021/04/05 05:11:51;;;;;;;;;;;11.80;54.10;;;;;;2089674;28;1122;-52
2021/04/05 05:13:10;;;;;;;;;;;11.90;54.10;;;;;;2071941;28;1194;-51
2021/04/05 05:14:30;;;;;;;;;;;11.90;53.80;;;;;;2057383;28;1351;-53
2021/04/05 05:15:49;;;;;;;;;;;12.00;53.70;;;;;;2068975;28;1086;-51
2021/04/05 05:17:08;;;;;;;;;;;12.00;53.50;;;;;;2082350;28;1436;-51
2021/04/05 05:18:28;;;;;;;;;;;12.10;53.40;;;;;;2082324;28;1495;-52
2021/04/05 05:19:47;;;;;;;;;;;12.20;53.30;;;;;;2082338;28;1106;-52
2021/04/05 05:21:07;;;;;;;;;;;12.20;53.10;;;;;;2078599;28;1132;-51
2021/04/05 05:22:26;;;;;;;;;;;12.30;53.00;;;;;;2084863;28;1406;-55
2021/04/05 05:23:46;;;;;;;;;;;12.40;53.50;;;;;;2083133;28;1338;-52
2021/04/05 05:25:05;;;;;;;;;;;12.40;52.70;;;;;;2074135;28;1450;-51
2021/04/05 05:26:25;;;;;;;;;;;12.50;52.70;;;;;;2070428;28;1148;-51
2021/04/05 05:27:46;;;;;;;;;;;12.60;52.50;;;;;;2076090;28;1567;-51
2021/04/05 05:29:07;;;;;;;;;;;12.60;52.30;;;;;;2087637;28;1027;-51
2021/04/05 05:30:26;;;;;;;;;;;12.70;52.20;;;;;;2089776;28;1209;-52
2021/04/05 05:31:45;;;;;;;;;;;12.70;52.10;;;;;;2079848;28;1316;-52
2021/04/05 05:33:06;;;;;;;;;;;12.80;52.00;;;;;;2078044;28;1083;-50
2021/04/05 05:34:25;;;;;;;;;;;12.90;51.90;;;;;;2071089;28;1152;-52
2021/04/05 05:35:44;;;;;;;;;;;12.90;52.20;;;;;;2081320;28;1053;-51
2021/04/05 05:37:03;;;;;;;;;;;13.00;51.60;;;;;;2073203;28;1715;-51
2021/04/05 05:38:23;;;;;;;;;;;13.00;51.50;;;;;;2073715;28;1187;-51
2021/04/05 05:39:42;;;;;;;;;;;13.10;51.50;;;;;;2078229;28;1327;-52
2021/04/05 05:41:10;;;;;;;;;;;13.20;51.40;;;;;;2081531;28;1053;-51
2021/04/05 05:42:36;;;;;;;;;;;13.30;51.30;;;;;;2088269;28;1479;-51
2021/04/05 05:43:57;;;;;;;;;;;13.30;51.70;;;;;;2080547;28;1463;-52
2021/04/05 05:45:17;;;;;;;;;;;13.30;51.00;;;;;;2073206;28;1371;-52
2021/04/05 05:46:42;;;;;;;;;;;13.30;51.00;;;;;;2080999;28;1287;-51
2021/04/05 05:48:06;;;;;;;;;;;13.30;51.00;;;;;;2081242;28;1320;-52
2021/04/05 05:49:29;;;;;;;;;;;13.30;51.00;;;;;;2080703;28;1235;-52
2021/04/05 05:50:58;;;;;;;;;;;13.40;51.10;;;;;;2087224;28;1163;-51
2021/04/05 05:52:36;;;;;;;;;;;13.30;51.60;;;;;;2071018;28;1377;-52
2021/04/05 05:54:13;;;;;;;;;;;13.30;51.10;;;;;;2081411;28;1501;-52
2021/04/05 05:55:33;;;;;;;;;;;13.40;51.70;;;;;;2091228;28;1160;-52
2021/04/05 05:56:56;;;;;;;;;;;13.40;51.20;;;;;;2082822;28;1591;-52
2021/04/05 05:58:34;;;;;;;;;;;13.40;51.10;;;;;;2078050;28;1012;-52
2021/04/05 06:00:04;;;;;;;;;;;13.40;51.10;;;;;;2091059;28;1051;-53
2021/04/05 06:01:33;;;;;;;;;;;13.50;51.10;;;;;;2090270;28;1097;-52
2021/04/05 06:02:59;;;;;;;;;;;13.50;51.50;;;;;;2090828;28;1186;-51
2021/04/05 06:04:24;;;;;;;;;;;13.50;50.90;;;;;;2080926;28;1327;-52
2021/04/05 06:05:54;;;;;;;;;;;13.60;50.90;;;;;;2078366;28;1209;-51
2021/04/05 06:07:21;;;;;;;;;;;13.60;50.90;;;;;;2071273;28;1906;-53
2021/04/05 06:08:52;;;;;;;;;;;13.60;50.80;;;;;;2075179;28;1218;-52
2021/04/05 06:10:28;;;;;;;;;;;13.60;50.90;;;;;;2091210;28;1501;-51
2021/04/05 06:12:05;;;;;;;;;;;13.70;51.10;;;;;;2082322;28;1067;-52
2021/04/05 06:13:27;;;;;;;;;;;13.70;51.40;;;;;;2072591;28;1101;-52
2021/04/05 06:14:58;;;;;;;;;;;13.80;51.50;;;;;;2081260;28;1167;-51
2021/04/05 06:16:32;;;;;;;;;;;13.80;51.40;;;;;;2083621;28;1223;-52
2021/04/05 06:18:24;;;;;;;;;;;13.80;51.40;;;;;;2090217;28;1140;-53
2021/04/05 06:19:47;;;;;;;;;;;13.90;51.40;;;;;;2072711;28;1317;-51
2021/04/05 06:21:15;;;;;;;;;;;13.80;51.40;;;;;;2087947;28;911;-51
2021/04/05 06:22:53;;;;;;;;;;;13.80;51.40;;;;;;2088236;28;1159;-52
2021/04/05 06:24:19;;;;;;;;;;;13.80;52.00;;;;;;2089951;28;859;-52
2021/04/05 06:25:51;;;;;;;;;;;13.80;51.50;;;;;;2074091;28;1246;-53
2021/04/05 06:27:17;;;;;;;;;;;13.80;51.60;;;;;;2086313;28;1960;-53
2021/04/05 06:28:40;;;;;;;;;;;13.80;51.60;;;;;;2079815;28;1090;-52
2021/04/05 06:30:15;;;;;;;;;;;13.80;51.60;;;;;;2088349;28;1468;-52
2021/04/05 06:31:53;;;;;;;;;;;13.80;51.70;;;;;;2070827;28;900;-51
2021/04/05 06:33:20;;;;;;;;;;;13.80;51.70;;;;;;2087071;28;1069;-52
2021/04/05 06:34:58;;;;;;;;;;;13.70;51.70;;;;;;2082856;28;1085;-51
2021/04/05 06:36:17;;;;;;;;;;;13.70;51.80;;;;;;2089564;28;1218;-52
2021/04/05 06:37:38;;;;;;;;;;;13.70;51.90;;;;;;2080384;28;1453;-50
2021/04/05 06:39:16;;;;;;;;;;;13.70;52.00;;;;;;2082498;28;1182;-51
2021/04/05 06:40:36;;;;;;;;;;;13.70;52.50;;;;;;2090001;28;1391;-52
2021/04/05 06:41:55;;;;;;;;;;;13.70;52.00;;;;;;2082160;28;1272;-52
2021/04/05 06:43:23;;;;;;;;;;;13.70;52.00;;;;;;2079453;28;1206;-51
2021/04/05 06:44:50;;;;;;;;;;;13.70;52.00;;;;;;2089419;28;1242;-53
2021/04/05 06:46:12;;;;;;;;;;;13.70;52.00;;;;;;2091637;28;1079;-52
2021/04/05 06:47:38;;;;;;;;;;;13.70;52.00;;;;;;2093671;28;1956;-49
2021/04/05 06:49:03;;;;;;;;;;;13.60;52.00;;;;;;2081985;28;1280;-53
2021/04/05 06:50:32;;;;;;;;;;;13.60;52.10;;;;;;2086660;28;1408;-53
2021/04/05 06:52:03;;;;;;;;;;;13.60;52.20;;;;;;2091119;28;1130;-50
2021/04/05 06:53:34;;;;;;;;;;;13.60;52.30;;;;;;2080815;28;1064;-52
2021/04/05 06:54:56;;;;;;;;;;;13.60;52.30;;;;;;2080424;28;1197;-51
2021/04/05 06:56:20;;;;;;;;;;;13.50;52.30;;;;;;2078914;28;1187;-52
2021/04/05 06:57:45;;;;;;;;;;;13.60;52.40;;;;;;2080393;28;1411;-51
2021/04/05 06:59:11;;;;;;;;;;;13.50;52.50;;;;;;2080437;28;1136;-53
2021/04/05 07:00:35;;;;;;;;;;;13.50;52.50;;;;;;2071158;28;1219;-52
2021/04/05 07:02:13;;;;;;;;;;;13.50;52.60;;;;;;2080104;28;1345;-52
2021/04/05 07:03:51;;;;;;;;;;;13.50;53.20;;;;;;2090304;28;1197;-52
2021/04/05 07:05:18;;;;;;;;;;;13.50;52.70;;;;;;2090973;28;1515;-52
2021/04/05 07:06:47;;;;;;;;;;;13.40;52.70;;;;;;2082606;28;1285;-53
2021/04/05 07:08:15;;;;;;;;;;;13.40;52.80;;;;;;2088431;28;1144;-52
2021/04/05 07:09:34;;;;;;;;;;;13.40;52.90;;;;;;2074500;28;1209;-52
2021/04/05 07:11:11;;;;;;;;;;;13.40;52.90;;;;;;2072262;28;1382;-50
2021/04/05 07:12:30;;;;;;;;;;;13.40;53.00;;;;;;2080173;28;1351;-52
2021/04/05 07:13:55;;;;;;;;;;;13.30;53.00;;;;;;2080517;28;1539;-53
2021/04/05 07:15:23;;;;;;;;;;;13.30;53.00;;;;;;2088956;28;1309;-52
2021/04/05 07:16:50;;;;;;;;;;;13.30;53.10;;;;;;2082052;28;1531;-53
2021/04/05 07:18:22;;;;;;;;;;;13.30;53.20;;;;;;2088426;28;1208;-52
2021/04/05 07:19:44;;;;;;;;;;;13.30;53.20;;;;;;2090429;28;1243;-51
2021/04/05 07:21:16;;;;;;;;;;;13.30;53.30;;;;;;2091466;28;1207;-51
2021/04/05 07:22:54;;;;;;;;;;;13.20;53.20;;;;;;2091892;28;1150;-52
2021/04/05 07:24:32;;;;;;;;;;;13.20;53.30;;;;;;2091506;28;1411;-54
2021/04/05 07:25:58;;;;;;;;;;;13.20;53.40;;;;;;2090841;28;1604;-53
2021/04/05 07:27:20;;;;;;;;;;;13.20;54.60;;;;;;2082023;28;1977;-55
2021/04/05 07:28:51;;;;;;;;;;;13.20;54.70;;;;;;2079889;28;1178;-56
2021/04/05 07:30:13;;;;;;;;;;;13.30;55.00;;;;;;2088283;28;1367;-55
2021/04/05 07:31:35;;;;;;;;;;;13.30;55.20;;;;;;2073768;28;1613;-53
2021/04/05 07:33:12;;;;;;;;;;;13.30;55.00;;;;;;2073109;28;1453;-52
2021/04/05 07:34:31;;;;;;;;;;;13.30;55.00;;;;;;2087332;28;1291;-51
2021/04/05 07:36:10;;;;;;;;;;;13.30;54.90;;;;;;2091584;28;1268;-50
2021/04/05 07:37:52;;;;;;;;;;;13.20;54.80;;;;;;2090593;28;1511;-51
2021/04/05 07:39:21;;;;;;;;;;;13.20;54.90;;;;;;2081008;28;1193;-52
2021/04/05 07:40:51;;;;;;;;;;;13.10;54.90;;;;;;2089388;28;1248;-50
2021/04/05 07:42:14;;;;;;;;;;;13.20;55.50;;;;;;2078564;28;1349;-51
2021/04/05 07:43:59;;;;;;;;;;;13.10;55.00;;;;;;2070506;28;1279;-51
2021/04/05 07:45:18;;;;;;;;;;;13.10;55.10;;;;;;2089335;28;1751;-52
2021/04/05 07:46:39;;;;;;;;;;;13.10;55.10;;;;;;2092295;28;1429;-51
2021/04/05 07:48:10;;;;;;;;;;;13.10;55.20;;;;;;2080397;28;1307;-52
2021/04/05 07:49:31;;;;;;;;;;;13.10;55.20;;;;;;2088609;28;1380;-49
2021/04/05 07:50:52;;;;;;;;;;;13.00;55.20;;;;;;2080541;28;1027;-52
2021/04/05 07:52:11;;;;;;;;;;;13.00;55.70;;;;;;2067819;28;1101;-52
2021/04/05 07:53:32;;;;;;;;;;;13.00;55.30;;;;;;2073686;28;1100;-49
2021/04/05 07:54:52;;;;;;;;;;;13.00;55.30;;;;;;2078365;28;1171;-53
2021/04/05 07:56:18;;;;;;;;;;;13.00;55.40;;;;;;2076172;28;1173;-51
2021/04/05 07:57:51;;;;;;;;;;;13.00;55.40;;;;;;2067808;28;1372;-52
2021/04/05 07:59:25;;;;;;;;;;;12.90;55.80;;;;;;2074805;28;1301;-51
2021/04/05 08:00:52;;;;;;;;;;;12.90;55.80;;;;;;2080538;28;1163;-50
2021/04/05 08:02:11;;;;;;;;;;;12.90;55.80;;;;;;2079193;28;1307;-50
2021/04/05 08:03:43;;;;;;;;;;;12.90;55.40;;;;;;2085994;28;1582;-51
2021/04/05 08:05:11;;;;;;;;;;;12.90;55.50;;;;;;2081713;28;1263;-50
2021/04/05 08:06:53;;;;;;;;;;;12.90;55.40;;;;;;2081831;28;1516;-51
2021/04/05 08:08:17;;;;;;;;;;;12.90;55.40;;;;;;2048701;28;1389;-50